createdAt,value
2023-12-23T00:00:05.439Z,100920.97
2023-12-23T00:02:35.603Z,100923.59
2023-12-23T00:05:02.451Z,100919.19
2023-12-23T00:07:29.250Z,100916.03
2023-12-23T00:09:56.024Z,100917.91
2023-12-23T00:12:22.910Z,100913.19
2023-12-23T00:14:49.584Z,100911.47
2023-12-23T00:17:16.484Z,100914.63
2023-12-23T00:19:44.758Z,100916.56
2023-12-23T00:22:11.706Z,100904.13
2023-12-23T00:24:38.481Z,100918.25
2023-12-23T00:27:05.578Z,100916.59
2023-12-23T00:29:33.080Z,100910.66
2023-12-23T00:31:59.828Z,100909.81
2023-12-23T00:34:26.509Z,100906.75
2023-12-23T00:36:54.619Z,100899.41
2023-12-23T00:39:22.662Z,100891.13
2023-12-23T00:41:49.377Z,100885.75
2023-12-23T00:44:16.193Z,100888.06
2023-12-23T00:46:42.976Z,100890.09
2023-12-23T00:49:09.819Z,100884.38
2023-12-23T00:51:37.610Z,100880.25
2023-12-23T00:54:05.814Z,100882.47
2023-12-23T00:56:32.576Z,100881.63
2023-12-23T00:58:59.376Z,100878.22
2023-12-23T01:01:26.169Z,100876.34
2023-12-23T01:03:52.902Z,100870.97
2023-12-23T01:06:19.813Z,100872.06
2023-12-23T01:08:46.508Z,100867.03
2023-12-23T01:11:14.688Z,100857.31
2023-12-23T01:13:41.670Z,100858.00
2023-12-23T01:16:08.852Z,100860.13
2023-12-23T01:18:35.557Z,100860.47
2023-12-23T01:21:02.332Z,100860.81
2023-12-23T01:23:29.093Z,100844.44
2023-12-23T01:25:55.843Z,100851.44
2023-12-23T01:28:23.977Z,100849.03
2023-12-23T01:30:50.771Z,100838.44
2023-12-23T01:33:17.585Z,100827.88
2023-12-23T01:35:45.179Z,100830.88
2023-12-23T01:38:11.940Z,100810.66
2023-12-23T01:40:39.042Z,100823.44
2023-12-23T01:43:05.807Z,100818.16
2023-12-23T01:45:36.194Z,100815.06
2023-12-23T01:48:04.792Z,100802.94
2023-12-23T01:50:31.617Z,100795.81
2023-12-23T01:53:00.071Z,100786.25
2023-12-23T01:55:28.667Z,100788.22
2023-12-23T01:57:55.744Z,100787.88
2023-12-23T02:00:22.594Z,100764.09
2023-12-23T02:02:51.347Z,100770.25
2023-12-23T02:05:18.563Z,100744.81
2023-12-23T02:07:45.574Z,100736.13
2023-12-23T02:10:13.107Z,100739.53
2023-12-23T02:12:48.439Z,100726.31
2023-12-23T02:15:16.703Z,100714.66
2023-12-23T02:17:43.750Z,100715.34
2023-12-23T02:20:12.267Z,100708.44
2023-12-23T02:22:40.455Z,100720.78
2023-12-23T02:25:08.103Z,100720.97
2023-12-23T02:27:40.844Z,100708.44
2023-12-23T02:30:10.057Z,100704.09
2023-12-23T02:32:37.106Z,100705.88
2023-12-23T02:35:04.911Z,100688.56
2023-12-23T02:37:31.598Z,100694.38
2023-12-23T02:39:59.689Z,100685.59
2023-12-23T02:42:26.467Z,100667.94
2023-12-23T02:44:53.223Z,100660.09
2023-12-23T02:47:19.933Z,100648.69
2023-12-23T02:49:46.709Z,100640.50
2023-12-23T02:52:13.379Z,100641.00
2023-12-23T02:54:40.289Z,100629.38
2023-12-23T02:57:08.727Z,100620.09
2023-12-23T02:59:35.468Z,100610.22
2023-12-23T03:02:02.217Z,100595.09
2023-12-23T03:04:28.939Z,100597.19
2023-12-23T03:06:55.695Z,100594.00
2023-12-23T03:09:22.427Z,100583.84
2023-12-23T03:11:49.227Z,100568.75
2023-12-23T03:14:17.349Z,100558.34
2023-12-23T03:16:44.279Z,100567.72
2023-12-23T03:19:11.153Z,100565.31
2023-12-23T03:21:42.967Z,100548.63
2023-12-23T03:24:09.683Z,100556.03
2023-12-23T03:26:36.531Z,100539.84
2023-12-23T03:29:03.288Z,100541.69
2023-12-23T03:31:31.391Z,100536.31
2023-12-23T03:33:58.128Z,100534.31
2023-12-23T03:36:24.869Z,100525.19
2023-12-23T03:38:51.641Z,100515.44
2023-12-23T03:41:18.340Z,100530.50
2023-12-23T03:43:45.637Z,100522.34
2023-12-23T03:46:12.418Z,100518.94
2023-12-23T03:48:40.512Z,100516.84
2023-12-23T03:51:08.256Z,100507.09
2023-12-23T03:53:35.031Z,100509.81
2023-12-23T03:56:01.870Z,100500.94
2023-12-23T03:58:28.807Z,100493.63
2023-12-23T04:00:55.763Z,100488.22
2023-12-23T04:03:22.562Z,100485.28
2023-12-23T04:05:51.516Z,100475.97
2023-12-23T04:08:18.364Z,100484.13
2023-12-23T04:10:45.090Z,100465.38
2023-12-23T04:13:12.504Z,100463.53
2023-12-23T04:15:40.070Z,100456.78
2023-12-23T04:18:07.607Z,100451.13
2023-12-23T04:20:34.439Z,100443.19
2023-12-23T04:23:02.542Z,100450.19
2023-12-23T04:25:29.274Z,100438.41
2023-12-23T04:27:56.019Z,100436.63
2023-12-23T04:30:22.955Z,100432.34
2023-12-23T04:32:49.843Z,100435.00
2023-12-23T04:35:17.413Z,100434.06
2023-12-23T04:37:44.891Z,100442.44
2023-12-23T04:40:13.694Z,100444.78
2023-12-23T04:42:40.771Z,100433.97
2023-12-23T04:45:09.680Z,100447.88
2023-12-23T04:47:38.145Z,100450.72
2023-12-23T04:50:06.349Z,100436.84
2023-12-23T04:52:33.899Z,100439.91
2023-12-23T04:55:00.737Z,100434.59
2023-12-23T04:57:29.079Z,100442.44
2023-12-23T04:59:55.900Z,100431.16
2023-12-23T05:02:22.699Z,100440.31
2023-12-23T05:04:49.672Z,100422.25
2023-12-23T05:07:16.415Z,100426.78
2023-12-23T05:09:43.200Z,100416.06
2023-12-23T05:12:10.109Z,100427.53
2023-12-23T05:14:38.222Z,100419.97
2023-12-23T05:17:05.316Z,100413.19
2023-12-23T05:19:31.980Z,100429.19
2023-12-23T05:21:58.682Z,100430.91
2023-12-23T05:24:25.385Z,100438.50
2023-12-23T05:26:52.204Z,100433.59
2023-12-23T05:29:19.002Z,100448.72
2023-12-23T05:31:47.759Z,100432.34
2023-12-23T05:34:14.583Z,100433.38
2023-12-23T05:36:41.468Z,100439.78
2023-12-23T05:39:08.148Z,100442.44
2023-12-23T05:41:34.843Z,100430.69
2023-12-23T05:44:01.543Z,100427.91
2023-12-23T05:46:28.344Z,100439.81
2023-12-23T05:48:56.497Z,100438.09
2023-12-23T05:51:23.349Z,100457.66
2023-12-23T05:53:50.094Z,100444.50
2023-12-23T05:56:16.793Z,100419.75
2023-12-23T05:58:43.918Z,100425.91
2023-12-23T06:01:10.775Z,100420.06
2023-12-23T06:03:37.584Z,100419.84
2023-12-23T06:06:06.090Z,100429.06
2023-12-23T06:08:32.827Z,100429.78
2023-12-23T06:11:00.392Z,100416.00
2023-12-23T06:13:28.115Z,100422.94
2023-12-23T06:15:54.854Z,100419.00
2023-12-23T06:18:21.778Z,100424.66
2023-12-23T06:20:48.562Z,100422.00
2023-12-23T06:23:16.710Z,100419.72
2023-12-23T06:25:43.501Z,100415.78
2023-12-23T06:28:10.262Z,100412.88
2023-12-23T06:30:37.048Z,100426.28
2023-12-23T06:33:04.209Z,100411.44
2023-12-23T06:35:31.030Z,100433.09
2023-12-23T06:37:57.817Z,100426.47
2023-12-23T06:40:25.924Z,100418.59
2023-12-23T06:42:52.948Z,100420.06
2023-12-23T06:45:19.789Z,100424.44
2023-12-23T06:47:46.567Z,100443.03
2023-12-23T06:50:13.492Z,100431.44
2023-12-23T06:52:40.418Z,100451.50
2023-12-23T06:55:07.766Z,100447.25
2023-12-23T06:57:37.768Z,100449.91
2023-12-23T07:00:06.624Z,100461.88
2023-12-23T07:02:33.347Z,100446.69
2023-12-23T07:05:00.234Z,100458.28
2023-12-23T07:07:27.190Z,100461.72
2023-12-23T07:10:01.842Z,100452.50
2023-12-23T07:12:32.057Z,100452.50
2023-12-23T07:15:00.600Z,100441.88
2023-12-23T07:17:38.093Z,100448.28
2023-12-23T07:20:09.807Z,100457.81
2023-12-23T07:22:36.582Z,100457.59
2023-12-23T07:25:03.676Z,100451.06
2023-12-23T07:27:30.479Z,100460.72
2023-12-23T07:29:57.302Z,100475.78
2023-12-23T07:32:25.582Z,100458.66
2023-12-23T07:34:52.506Z,100456.97
2023-12-23T07:37:19.272Z,100456.75
2023-12-23T07:39:46.041Z,100464.16
2023-12-23T07:42:12.837Z,100462.25
2023-12-23T07:44:39.652Z,100479.88
2023-12-23T07:47:06.912Z,100471.00
2023-12-23T07:49:38.227Z,100483.44
2023-12-23T07:52:06.609Z,100473.66
2023-12-23T07:54:33.370Z,100467.09
2023-12-23T07:57:00.138Z,100476.91
2023-12-23T07:59:27.071Z,100481.16
2023-12-23T08:01:53.822Z,100490.81
2023-12-23T08:04:20.575Z,100499.13
2023-12-23T08:06:48.681Z,100490.91
2023-12-23T08:09:15.357Z,100498.34
2023-12-23T08:11:42.127Z,100497.84
2023-12-23T08:14:08.855Z,100499.72
2023-12-23T08:16:35.578Z,100495.75
2023-12-23T08:19:02.388Z,100495.97
2023-12-23T08:21:29.132Z,100508.41
2023-12-23T08:23:57.189Z,100500.34
2023-12-23T08:26:24.787Z,100505.56
2023-12-23T08:28:51.632Z,100505.75
2023-12-23T08:31:18.399Z,100528.09
2023-12-23T08:33:45.213Z,100514.31
2023-12-23T08:36:11.951Z,100531.53
2023-12-23T08:38:39.332Z,100537.25
2023-12-23T08:41:08.237Z,100542.25
2023-12-23T08:43:34.960Z,100551.53
2023-12-23T08:46:01.658Z,100551.41
2023-12-23T08:48:28.368Z,100560.38
2023-12-23T08:50:55.139Z,100555.69
2023-12-23T08:53:21.886Z,100551.94
2023-12-23T08:55:48.623Z,100554.81
2023-12-23T08:58:16.686Z,100556.50
2023-12-23T09:00:43.494Z,100559.16
2023-12-23T09:03:10.343Z,100555.09
2023-12-23T09:05:37.300Z,100564.78
2023-12-23T09:08:04.700Z,100546.16
2023-12-23T09:10:31.409Z,100578.38
2023-12-23T09:12:58.080Z,100579.88
2023-12-23T09:15:26.555Z,100576.88
2023-12-23T09:17:53.614Z,100563.16
2023-12-23T09:20:20.623Z,100567.16
2023-12-23T09:22:49.676Z,100586.88
2023-12-23T09:25:16.535Z,100606.09
2023-12-23T09:27:43.282Z,100571.88
2023-12-23T09:30:10.943Z,100585.38
2023-12-23T09:32:39.063Z,100583.69
2023-12-23T09:35:06.667Z,100590.25
2023-12-23T09:37:33.617Z,100609.31
2023-12-23T09:40:00.524Z,100596.22
2023-12-23T09:42:28.737Z,100621.91
2023-12-23T09:44:55.784Z,100598.47
2023-12-23T09:47:22.816Z,100599.78
2023-12-23T09:49:51.269Z,100622.19
2023-12-23T09:52:18.102Z,100616.38
2023-12-23T09:54:48.873Z,100608.09
2023-12-23T09:57:16.556Z,100621.16
2023-12-23T09:59:43.283Z,100611.38
2023-12-23T10:02:10.102Z,100614.25
2023-12-23T10:04:36.813Z,100621.91
2023-12-23T10:07:04.942Z,100584.06
2023-12-23T10:09:31.774Z,100612.09
2023-12-23T10:11:58.592Z,100581.81
2023-12-23T10:14:25.401Z,100625.38
2023-12-23T10:16:52.141Z,100626.66
2023-12-23T10:19:18.898Z,100596.31
2023-12-23T10:21:45.658Z,100611.97
2023-12-23T10:24:13.791Z,100613.22
2023-12-23T10:26:42.330Z,100630.75
2023-12-23T10:29:10.713Z,100623.53
2023-12-23T10:31:38.053Z,100631.53
2023-12-23T10:34:09.737Z,100621.28
2023-12-23T10:36:38.083Z,100629.97
2023-12-23T10:39:10.678Z,100630.09
2023-12-23T10:41:47.344Z,100629.47
2023-12-23T10:44:17.318Z,100627.31
2023-12-23T10:46:45.715Z,100613.31
2023-12-23T10:49:13.923Z,100603.63
2023-12-23T10:51:40.836Z,100618.38
2023-12-23T10:54:08.735Z,100601.22
2023-12-23T10:56:36.684Z,100610.66
2023-12-23T10:59:05.811Z,100613.56
2023-12-23T11:01:33.518Z,100615.75
2023-12-23T11:04:02.359Z,100605.13
2023-12-23T11:06:32.290Z,100612.16
2023-12-23T11:09:01.425Z,100614.56
2023-12-23T11:11:30.745Z,100610.22
2023-12-23T11:13:57.717Z,100618.59
2023-12-23T11:16:25.743Z,100628.72
2023-12-23T11:18:52.952Z,100612.53
2023-12-23T11:21:19.944Z,100608.47
2023-12-23T11:23:47.171Z,100617.53
2023-12-23T11:26:40.164Z,100619.72
2023-12-23T11:29:07.442Z,100606.28
2023-12-23T11:31:35.669Z,100606.28
2023-12-23T11:34:12.427Z,100610.19
2023-12-23T11:36:39.193Z,100599.38
2023-12-23T11:39:06.694Z,100607.59
2023-12-23T11:41:36.501Z,100629.00
2023-12-23T11:44:03.838Z,100616.69
2023-12-23T11:46:32.143Z,100625.72
2023-12-23T11:49:01.177Z,100609.75
2023-12-23T11:51:27.988Z,100630.22
2023-12-23T11:53:57.168Z,100617.97
2023-12-23T11:56:25.828Z,100629.81
2023-12-23T11:58:52.624Z,100636.72
2023-12-23T12:01:19.485Z,100621.63
2023-12-23T12:03:48.151Z,100643.31
2023-12-23T12:06:16.397Z,100633.84
2023-12-23T12:08:43.305Z,100629.84
2023-12-23T12:11:10.130Z,100653.94
2023-12-23T12:13:37.057Z,100646.38
2023-12-23T12:16:04.722Z,100644.00
2023-12-23T12:18:31.433Z,100648.09
2023-12-23T12:20:58.653Z,100654.50
2023-12-23T12:23:27.050Z,100654.50
2023-12-23T12:25:53.801Z,100656.53
2023-12-23T12:28:20.749Z,100656.44
2023-12-23T12:30:48.476Z,100660.38
2023-12-23T12:33:16.033Z,100665.06
2023-12-23T12:35:42.771Z,100659.19
2023-12-23T12:38:16.631Z,100671.31
2023-12-23T12:40:48.410Z,100665.34
2023-12-23T12:43:15.108Z,100646.84
2023-12-23T12:45:42.935Z,100658.22
2023-12-23T12:48:10.793Z,100671.22
2023-12-23T12:50:39.248Z,100667.25
2023-12-23T12:53:06.032Z,100652.75
2023-12-23T12:55:32.720Z,100653.88
2023-12-23T12:58:00.871Z,100648.53
2023-12-23T13:00:27.671Z,100643.00
2023-12-23T13:02:54.701Z,100637.66
2023-12-23T13:05:21.762Z,100647.00
2023-12-23T13:07:48.596Z,100632.28
2023-12-23T13:10:15.392Z,100624.03
2023-12-23T13:12:42.029Z,100645.59
2023-12-23T13:15:11.148Z,100652.56
2023-12-23T13:17:37.973Z,100681.56
2023-12-23T13:20:05.773Z,100677.81
2023-12-23T13:22:32.542Z,100678.13
2023-12-23T13:24:59.310Z,100680.53
2023-12-23T13:27:26.008Z,100678.94
2023-12-23T13:29:52.708Z,100676.38
2023-12-23T13:32:20.787Z,100679.66
2023-12-23T13:34:47.596Z,100665.34
2023-12-23T13:37:14.464Z,100680.56
2023-12-23T13:39:41.193Z,100683.72
2023-12-23T13:42:07.893Z,100680.13
2023-12-23T13:44:34.657Z,100682.56
2023-12-23T13:47:01.644Z,100689.06
2023-12-23T13:49:29.981Z,100686.28
2023-12-23T13:51:56.760Z,100689.22
2023-12-23T13:54:23.457Z,100676.69
2023-12-23T13:56:50.382Z,100681.25
2023-12-23T13:59:17.151Z,100684.91
2023-12-23T14:01:43.895Z,100691.78
2023-12-23T14:04:10.668Z,100690.09
2023-12-23T14:06:38.842Z,100692.28
2023-12-23T14:09:05.986Z,100695.41
2023-12-23T14:11:32.886Z,100687.31
2023-12-23T14:13:59.999Z,100680.53
2023-12-23T14:16:26.777Z,100687.47
2023-12-23T14:18:53.706Z,100669.88
2023-12-23T14:21:20.446Z,100683.91
2023-12-23T14:23:48.537Z,100695.84
2023-12-23T14:26:15.327Z,100692.06
2023-12-23T14:28:42.205Z,100707.03
2023-12-23T14:31:09.729Z,100708.84
2023-12-23T14:33:37.506Z,100701.84
2023-12-23T14:36:05.935Z,100702.47
2023-12-23T14:38:32.703Z,100703.34
2023-12-23T14:41:00.945Z,100713.75
2023-12-23T14:43:27.700Z,100708.75
2023-12-23T14:45:54.445Z,100717.81
2023-12-23T14:48:21.178Z,100707.38
2023-12-23T14:50:47.897Z,100726.72
2023-12-23T14:53:14.831Z,100736.00
2023-12-23T14:55:42.055Z,100729.09
2023-12-23T14:58:11.197Z,100720.56
2023-12-23T15:00:38.039Z,100726.72
2023-12-23T15:03:05.053Z,100726.72
2023-12-23T15:05:31.968Z,100713.88
2023-12-23T15:07:58.848Z,100720.28
2023-12-23T15:10:25.646Z,100723.03
2023-12-23T15:12:52.574Z,100732.72
2023-12-23T15:15:20.943Z,100730.59
2023-12-23T15:17:47.783Z,100735.81
2023-12-23T15:20:14.740Z,100746.53
2023-12-23T15:22:41.543Z,100733.16
2023-12-23T15:25:08.550Z,100731.13
2023-12-23T15:27:35.249Z,100738.47
2023-12-23T15:30:01.961Z,100741.22
2023-12-23T15:32:30.232Z,100748.69
2023-12-23T15:34:57.093Z,100748.97
2023-12-23T15:37:23.756Z,100733.16
2023-12-23T15:39:50.441Z,100749.09
2023-12-23T15:42:17.124Z,100754.63
2023-12-23T15:44:43.886Z,100756.53
2023-12-23T15:47:10.640Z,100752.59
2023-12-23T15:49:38.696Z,100755.47
2023-12-23T15:52:06.243Z,100747.84
2023-12-23T15:54:32.933Z,100761.84
2023-12-23T15:56:59.591Z,100761.00
2023-12-23T15:59:26.336Z,100750.16
2023-12-23T16:01:53.184Z,100747.84
2023-12-23T16:04:19.915Z,100763.34
2023-12-23T16:06:47.984Z,100746.75
2023-12-23T16:09:14.726Z,100754.41
2023-12-23T16:11:41.548Z,100738.03
2023-12-23T16:14:08.376Z,100739.75
2023-12-23T16:16:35.125Z,100733.34
2023-12-23T16:19:01.998Z,100737.38
2023-12-23T16:21:28.874Z,100736.66
2023-12-23T16:23:56.882Z,100734.22
2023-12-23T16:26:23.651Z,100727.09
2023-12-23T16:28:50.460Z,100737.50
2023-12-23T16:31:17.446Z,100738.25
2023-12-23T16:33:44.267Z,100739.31
2023-12-23T16:36:11.451Z,100732.50
2023-12-23T16:38:38.194Z,100735.59
2023-12-23T16:41:06.640Z,100741.31
2023-12-23T16:43:33.385Z,100751.84
2023-12-23T16:46:00.051Z,100741.44
2023-12-23T16:48:26.839Z,100741.53
2023-12-23T16:50:53.558Z,100746.75
2023-12-23T16:53:20.301Z,100736.97
2023-12-23T16:55:47.130Z,100742.69
2023-12-23T16:58:15.332Z,100741.63
2023-12-23T17:00:42.147Z,100732.50
2023-12-23T17:03:08.959Z,100742.06
2023-12-23T17:05:35.801Z,100746.13
2023-12-23T17:08:02.672Z,100738.03
2023-12-23T17:10:29.379Z,100737.59
2023-12-23T17:12:56.140Z,100740.69
2023-12-23T17:15:24.216Z,100738.25
2023-12-23T17:17:51.069Z,100743.47
2023-12-23T17:20:17.963Z,100741.44
2023-12-23T17:22:44.776Z,100733.25
2023-12-23T17:25:11.587Z,100719.97
2023-12-23T17:27:38.424Z,100735.69
2023-12-23T17:30:06.772Z,100740.06
2023-12-23T17:32:34.953Z,100743.03
2023-12-23T17:35:01.855Z,100736.97
2023-12-23T17:37:28.580Z,100729.31
2023-12-23T17:39:55.188Z,100729.53
2023-12-23T17:42:22.010Z,100725.50
2023-12-23T17:44:48.696Z,100729.09
2023-12-23T17:47:15.541Z,100729.44
2023-12-23T17:49:43.725Z,100719.03
2023-12-23T17:52:10.564Z,100723.72
2023-12-23T17:54:37.401Z,100726.59
2023-12-23T17:57:04.546Z,100723.72
2023-12-23T17:59:31.281Z,100724.44
2023-12-23T18:01:58.053Z,100722.50
2023-12-23T18:04:24.742Z,100725.94
2023-12-23T18:06:52.788Z,100724.88
2023-12-23T18:09:19.536Z,100728.47
2023-12-23T18:11:46.301Z,100729.22
2023-12-23T18:14:13.110Z,100724.66
2023-12-23T18:16:39.859Z,100727.22
2023-12-23T18:19:06.536Z,100722.84
2023-12-23T18:21:33.250Z,100726.56
2023-12-23T18:24:01.325Z,100729.88
2023-12-23T18:26:28.028Z,100735.91
2023-12-23T18:28:54.827Z,100723.56
2023-12-23T18:31:21.537Z,100725.28
2023-12-23T18:33:48.406Z,100729.53
2023-12-23T18:36:15.150Z,100727.22
2023-12-23T18:38:41.980Z,100723.56
2023-12-23T18:41:10.073Z,100730.47
2023-12-23T18:43:36.795Z,100723.56
2023-12-23T18:46:03.874Z,100728.03
2023-12-23T18:48:30.660Z,100730.59
2023-12-23T18:50:57.317Z,100722.63
2023-12-23T18:53:23.982Z,100723.13
2023-12-23T18:55:50.715Z,100714.44
2023-12-23T18:58:18.785Z,100716.38
2023-12-23T19:00:45.515Z,100726.34
2023-12-23T19:03:12.286Z,100721.88
2023-12-23T19:05:39.443Z,100721.03
2023-12-23T19:08:07.096Z,100740.13
2023-12-23T19:10:33.850Z,100704.41
2023-12-23T19:13:00.506Z,100709.22
2023-12-23T19:15:28.663Z,100715.28
2023-12-23T19:17:55.865Z,100736.31
2023-12-23T19:20:22.783Z,100727.63
2023-12-23T19:22:49.750Z,100722.28
2023-12-23T19:25:16.600Z,100720.50
2023-12-23T19:27:43.279Z,100702.72
2023-12-23T19:30:10.808Z,100705.50
2023-12-23T19:32:39.077Z,100715.06
2023-12-23T19:35:06.312Z,100708.66
2023-12-23T19:37:33.081Z,100701.53
2023-12-23T19:40:06.746Z,100711.22
2023-12-23T19:42:36.742Z,100713.53
2023-12-23T19:45:03.942Z,100701.31
2023-12-23T19:47:31.657Z,100688.25
2023-12-23T19:49:59.993Z,100684.00
2023-12-23T19:52:26.743Z,100693.69
2023-12-23T19:54:53.634Z,100706.75
2023-12-23T19:57:20.394Z,100724.50
2023-12-23T19:59:47.245Z,100712.72
2023-12-23T20:02:14.017Z,100709.28
2023-12-23T20:04:40.755Z,100703.97
2023-12-23T20:07:08.870Z,100696.13
2023-12-23T20:09:37.310Z,100690.69
2023-12-23T20:12:04.568Z,100684.84
2023-12-23T20:14:31.376Z,100690.81
2023-12-23T20:16:58.193Z,100708.44
2023-12-23T20:19:24.932Z,100703.25
2023-12-23T20:21:51.699Z,100702.47
2023-12-23T20:24:19.803Z,100699.31
2023-12-23T20:26:46.537Z,100691.84
2023-12-23T20:29:13.542Z,100702.47
2023-12-23T20:31:40.403Z,100700.16
2023-12-23T20:34:07.136Z,100685.72
2023-12-23T20:36:38.250Z,100682.94
2023-12-23T20:39:05.037Z,100699.09
2023-12-23T20:41:33.127Z,100700.69
2023-12-23T20:43:59.899Z,100704.63
2023-12-23T20:46:26.618Z,100698.38
2023-12-23T20:48:53.492Z,100701.75
2023-12-23T20:51:20.599Z,100702.19
2023-12-23T20:53:47.307Z,100681.66
2023-12-23T20:56:20.051Z,100686.97
2023-12-23T20:58:48.283Z,100688.91
2023-12-23T21:01:15.087Z,100676.34
2023-12-23T21:03:41.927Z,100692.28
2023-12-23T21:06:08.835Z,100678.06
2023-12-23T21:08:35.632Z,100677.31
2023-12-23T21:11:02.410Z,100661.38
2023-12-23T21:13:29.191Z,100661.66
2023-12-23T21:15:57.233Z,100657.63
2023-12-23T21:18:24.013Z,100651.28
2023-12-23T21:20:50.747Z,100650.44
2023-12-23T21:23:17.512Z,100636.41
2023-12-23T21:25:45.200Z,100638.22
2023-12-23T21:28:11.992Z,100646.69
2023-12-23T21:30:38.776Z,100628.53
2023-12-23T21:33:06.957Z,100634.47
2023-12-23T21:35:34.927Z,100624.56
2023-12-23T21:38:01.913Z,100623.22
2023-12-23T21:40:28.701Z,100617.19
2023-12-23T21:42:55.374Z,100621.63
2023-12-23T21:45:22.131Z,100607.06
2023-12-23T21:47:49.366Z,100608.97
2023-12-23T21:50:17.826Z,100600.06
2023-12-23T21:52:44.546Z,100596.78
2023-12-23T21:55:11.356Z,100595.16
2023-12-23T21:57:38.095Z,100586.38
2023-12-23T22:00:06.009Z,100588.16
2023-12-23T22:02:35.800Z,100604.97
2023-12-23T22:05:03.672Z,100606.63
2023-12-23T22:07:31.779Z,100613.66
2023-12-23T22:09:58.567Z,100616.31
2023-12-23T22:12:25.198Z,100606.88
2023-12-23T22:14:51.853Z,100639.38
2023-12-23T22:17:18.692Z,100635.03
2023-12-23T22:19:45.387Z,100640.25
2023-12-23T22:22:12.127Z,100652.34
2023-12-23T22:24:40.275Z,100648.94
2023-12-23T22:27:07.011Z,100626.00
2023-12-23T22:29:33.793Z,100633.22
2023-12-23T22:32:00.643Z,100639.28
2023-12-23T22:34:27.449Z,100640.25
2023-12-23T22:36:54.155Z,100636.72
2023-12-23T22:39:20.872Z,100646.00
2023-12-23T22:41:49.210Z,100641.53
2023-12-23T22:44:15.944Z,100637.91
2023-12-23T22:46:42.850Z,100640.47
2023-12-23T22:49:09.651Z,100629.19
2023-12-23T22:51:36.434Z,100629.41
2023-12-23T22:54:05.088Z,100616.44
2023-12-23T22:56:38.026Z,100624.63
2023-12-23T22:59:06.228Z,100605.81
2023-12-23T23:01:33.166Z,100621.16
2023-12-23T23:03:59.898Z,100620.94
2023-12-23T23:06:26.804Z,100628.47
2023-12-23T23:08:53.732Z,100627.53
2023-12-23T23:11:20.675Z,100627.03
2023-12-23T23:13:47.452Z,100623.81
2023-12-23T23:16:15.547Z,100612.97
2023-12-23T23:18:42.479Z,100612.13
2023-12-23T23:21:09.395Z,100626.03
2023-12-23T23:23:36.074Z,100618.06
2023-12-23T23:26:02.809Z,100597.34
2023-12-23T23:28:29.457Z,100603.81
2023-12-23T23:30:56.162Z,100586.41
2023-12-23T23:33:24.328Z,100588.75
2023-12-23T23:35:51.188Z,100591.53
2023-12-23T23:38:18.004Z,100592.91
2023-12-23T23:40:44.729Z,100586.88
2023-12-23T23:43:11.563Z,100561.47
2023-12-23T23:45:38.299Z,100553.72
2023-12-23T23:48:05.642Z,100565.19
2023-12-23T23:50:33.758Z,100548.31
2023-12-23T23:53:02.015Z,100571.88
2023-12-23T23:55:28.718Z,100555.31
2023-12-23T23:57:55.417Z,100549.91
